createdAt,value
2023-05-09T00:02:22.091Z,36.19
2023-05-09T00:07:27.214Z,36.27
2023-05-09T00:12:33.704Z,35.79
2023-05-09T00:17:39.785Z,35.42
2023-05-09T00:22:44.916Z,35.61
2023-05-09T00:27:49.889Z,35.24
2023-05-09T00:32:54.920Z,35.46
2023-05-09T00:38:00.636Z,34.41
2023-05-09T00:43:06.063Z,34.27
2023-05-09T00:48:11.791Z,34.45
2023-05-09T00:53:16.698Z,35.04
2023-05-09T00:58:22.174Z,34.38
2023-05-09T01:03:26.860Z,34.47
2023-05-09T01:08:55.630Z,34.44
2023-05-09T01:14:27.417Z,34.38
2023-05-09T01:19:31.979Z,33.98
2023-05-09T01:24:49.497Z,33.55
2023-05-09T01:29:59.684Z,33.51
2023-05-09T01:35:07.451Z,33.66
2023-05-09T01:40:22.085Z,33.32
2023-05-09T01:45:28.965Z,33.62
2023-05-09T01:50:36.624Z,33.34
2023-05-09T01:55:43.101Z,33.51
2023-05-09T02:00:52.412Z,33.57
2023-05-09T02:05:59.526Z,32.50
2023-05-09T02:11:04.558Z,32.66
2023-05-09T02:16:12.302Z,32.67
2023-05-09T02:21:17.608Z,32.50
2023-05-09T02:26:21.982Z,31.83
2023-05-09T02:31:27.319Z,31.50
2023-05-09T02:36:33.962Z,31.99
2023-05-09T02:41:38.833Z,31.16
2023-05-09T02:46:43.945Z,30.84
2023-05-09T02:51:49.083Z,29.87
2023-05-09T02:56:54.123Z,31.07
2023-05-09T03:01:59.270Z,31.13
2023-05-09T03:07:04.244Z,29.95
2023-05-09T03:12:10.924Z,30.23
2023-05-09T03:17:22.475Z,30.35
2023-05-09T03:22:27.282Z,31.25
2023-05-09T03:27:37.401Z,31.25
2023-05-09T03:32:45.622Z,30.92
2023-05-09T03:37:50.797Z,30.49
2023-05-09T03:42:56.029Z,29.64
2023-05-09T03:48:00.693Z,29.81
2023-05-09T03:53:06.662Z,28.81
2023-05-09T03:58:14.392Z,29.06
2023-05-09T04:03:21.071Z,30.30
2023-05-09T04:08:29.445Z,29.84
2023-05-09T04:13:36.116Z,30.08
2023-05-09T04:18:48.387Z,28.01
2023-05-09T04:23:53.886Z,29.53
2023-05-09T04:29:06.691Z,27.04
2023-05-09T04:34:14.336Z,28.13
2023-05-09T04:39:20.930Z,28.33
2023-05-09T04:44:37.464Z,25.67
2023-05-09T04:49:42.485Z,26.49
2023-05-09T04:54:47.748Z,26.94
2023-05-09T04:59:55.878Z,26.15
2023-05-09T05:05:17.913Z,26.47
2023-05-09T05:10:23.202Z,27.23
2023-05-09T05:15:34.758Z,25.61
2023-05-09T05:20:44.921Z,26.20
2023-05-09T05:25:50.429Z,24.24
2023-05-09T05:30:56.864Z,25.38
2023-05-09T05:36:02.012Z,24.74
2023-05-09T05:41:07.822Z,24.84
2023-05-09T05:46:13.406Z,24.47
2023-05-09T05:51:19.498Z,26.68
2023-05-09T05:56:25.193Z,24.40
2023-05-09T06:01:30.910Z,24.28
2023-05-09T06:06:36.801Z,24.68
2023-05-09T06:11:42.397Z,23.90
2023-05-09T06:16:47.784Z,23.30
2023-05-09T06:21:53.426Z,24.53
2023-05-09T06:26:59.017Z,23.73
2023-05-09T06:32:04.396Z,23.19
2023-05-09T06:37:09.766Z,23.70
2023-05-09T06:42:15.414Z,23.36
2023-05-09T06:47:22.023Z,23.33
2023-05-09T06:52:27.566Z,22.37
2023-05-09T06:57:33.559Z,23.93
2023-05-09T07:02:42.897Z,24.18
2023-05-09T07:07:48.498Z,22.46
2023-05-09T07:12:54.607Z,22.36
2023-05-09T07:18:00.161Z,22.41
2023-05-09T07:23:08.412Z,23.54
2023-05-09T07:28:14.068Z,23.31
2023-05-09T07:33:19.304Z,22.10
2023-05-09T07:38:24.789Z,23.45
2023-05-09T07:43:29.894Z,23.98
2023-05-09T07:48:34.392Z,23.88
2023-05-09T07:53:39.311Z,24.01
2023-05-09T07:58:44.450Z,23.21
2023-05-09T08:03:49.573Z,23.20
2023-05-09T08:08:55.067Z,22.98
2023-05-09T08:14:00.418Z,23.28
2023-05-09T08:19:05.564Z,22.26
2023-05-09T08:24:10.966Z,21.73
2023-05-09T08:29:16.524Z,22.17
2023-05-09T08:34:22.871Z,21.95
2023-05-09T08:39:28.070Z,23.10
2023-05-09T08:44:33.816Z,22.80
2023-05-09T08:49:39.170Z,24.68
2023-05-09T08:54:45.220Z,25.04
2023-05-09T08:59:53.859Z,24.97
2023-05-09T09:04:59.026Z,25.25
2023-05-09T09:10:06.365Z,26.04
2023-05-09T09:15:19.154Z,25.84
2023-05-09T09:20:28.171Z,24.98
2023-05-09T09:25:33.617Z,24.74
2023-05-09T09:30:55.663Z,25.84
2023-05-09T09:36:01.337Z,24.90
2023-05-09T09:41:07.251Z,25.21
2023-05-09T09:46:13.244Z,24.99
2023-05-09T09:51:19.985Z,25.56
2023-05-09T09:56:44.045Z,26.16
2023-05-09T10:02:07.519Z,25.40
2023-05-09T10:07:15.062Z,25.51
2023-05-09T10:12:22.193Z,25.39
2023-05-09T10:17:28.769Z,25.43
2023-05-09T10:22:37.710Z,26.26
2023-05-09T10:27:47.116Z,26.41
2023-05-09T10:32:56.786Z,26.08
2023-05-09T10:38:04.451Z,26.23
2023-05-09T10:43:09.790Z,25.61
2023-05-09T10:48:16.421Z,25.67
2023-05-09T10:53:25.592Z,25.96
2023-05-09T10:58:37.561Z,25.92
2023-05-09T11:04:01.237Z,26.07
2023-05-09T11:09:33.967Z,26.20
2023-05-09T11:14:51.124Z,26.63
2023-05-09T11:20:01.125Z,26.00
2023-05-09T11:25:17.905Z,26.30
2023-05-09T11:30:23.890Z,26.05
2023-05-09T11:35:29.819Z,25.82
2023-05-09T11:40:35.566Z,26.37
2023-05-09T11:45:43.990Z,26.96
2023-05-09T11:50:50.927Z,27.30
2023-05-09T11:55:56.547Z,27.49
2023-05-09T12:01:03.277Z,27.24
2023-05-09T12:06:08.862Z,27.77
2023-05-09T12:11:18.523Z,27.43
2023-05-09T12:16:24.405Z,27.53
2023-05-09T12:21:30.826Z,27.27
2023-05-09T12:26:36.392Z,27.23
2023-05-09T12:31:42.852Z,27.22
2023-05-09T12:36:54.795Z,27.30
2023-05-09T12:42:02.011Z,27.51
2023-05-09T12:47:07.929Z,27.13
2023-05-09T12:52:26.546Z,27.32
2023-05-09T12:57:33.812Z,27.10
2023-05-09T13:02:42.482Z,27.60
2023-05-09T13:07:48.212Z,27.59
2023-05-09T13:12:54.706Z,27.77
2023-05-09T13:17:59.543Z,28.18
2023-05-09T13:23:05.573Z,28.64
2023-05-09T13:28:10.948Z,28.84
2023-05-09T13:33:25.153Z,28.19
2023-05-09T13:38:33.826Z,29.27
2023-05-09T13:43:44.077Z,28.97
2023-05-09T13:48:49.910Z,28.66
2023-05-09T13:53:57.271Z,28.53
2023-05-09T13:59:04.014Z,28.85
2023-05-09T14:04:09.757Z,28.73
2023-05-09T14:09:17.337Z,28.66
2023-05-09T14:14:25.888Z,28.81
2023-05-09T14:19:34.541Z,28.67
2023-05-09T14:24:45.160Z,28.81
2023-05-09T14:29:51.550Z,28.33
2023-05-09T14:34:58.960Z,28.68
2023-05-09T14:40:11.064Z,28.32
2023-05-09T14:45:18.002Z,28.73
2023-05-09T14:50:23.735Z,28.66
2023-05-09T14:55:30.180Z,28.69
2023-05-09T15:00:36.384Z,28.80
2023-05-09T15:05:46.207Z,28.55
2023-05-09T15:10:55.725Z,28.37
2023-05-09T15:16:06.100Z,28.63
2023-05-09T15:21:18.560Z,28.76
2023-05-09T15:26:24.512Z,28.60
2023-05-09T15:31:34.533Z,28.61
2023-05-09T15:36:44.052Z,28.41
2023-05-09T15:41:52.654Z,28.19
2023-05-09T15:46:59.847Z,28.64
2023-05-09T15:52:15.521Z,28.25
2023-05-09T15:57:21.118Z,28.52
2023-05-09T16:02:27.786Z,28.33
2023-05-09T16:07:35.747Z,28.86
2023-05-09T16:12:41.675Z,28.20
2023-05-09T16:17:47.989Z,28.04
2023-05-09T16:22:52.832Z,28.18
2023-05-09T16:27:58.353Z,28.04
2023-05-09T16:33:06.836Z,28.00
2023-05-09T16:38:12.239Z,28.01
2023-05-09T16:43:17.905Z,28.39
2023-05-09T16:48:26.105Z,28.09
2023-05-09T16:53:32.439Z,27.72
2023-05-09T16:58:37.458Z,28.00
2023-05-09T17:03:43.806Z,27.84
2023-05-09T17:08:49.872Z,28.47
2023-05-09T17:13:54.868Z,28.21
2023-05-09T17:18:59.991Z,28.86
2023-05-09T17:24:04.743Z,28.19
2023-05-09T17:29:10.160Z,27.98
2023-05-09T17:34:15.544Z,27.71
2023-05-09T17:39:20.514Z,27.39
2023-05-09T17:44:25.618Z,27.29
2023-05-09T17:49:31.252Z,27.98
2023-05-09T17:54:35.647Z,28.71
2023-05-09T17:59:42.720Z,28.99
2023-05-09T18:04:47.849Z,29.07
2023-05-09T18:09:52.805Z,29.36
2023-05-09T18:14:57.831Z,29.50
2023-05-09T18:20:02.169Z,29.73
2023-05-09T18:25:07.460Z,29.91
2023-05-09T18:30:12.856Z,29.97
2023-05-09T18:35:17.860Z,29.90
2023-05-09T18:40:23.143Z,30.72
2023-05-09T18:45:28.386Z,30.08
2023-05-09T18:50:33.789Z,29.90
2023-05-09T18:55:38.781Z,29.52
2023-05-09T19:00:44.200Z,30.59
2023-05-09T19:05:49.282Z,31.77
2023-05-09T19:10:54.522Z,30.84
2023-05-09T19:15:59.755Z,30.36
2023-05-09T19:21:04.930Z,30.17
2023-05-09T19:26:11.355Z,29.94
2023-05-09T19:31:19.461Z,30.21
2023-05-09T19:36:24.650Z,30.14
2023-05-09T19:41:29.618Z,30.07
2023-05-09T19:46:34.937Z,30.01
2023-05-09T19:51:40.507Z,30.22
2023-05-09T19:56:44.785Z,30.21
2023-05-09T20:01:49.852Z,30.37
2023-05-09T20:06:55.423Z,30.40
2023-05-09T20:12:04.888Z,29.94
2023-05-09T20:17:09.880Z,30.20
2023-05-09T20:22:14.838Z,30.42
2023-05-09T20:27:19.760Z,31.80
2023-05-09T20:32:25.607Z,31.52
2023-05-09T20:37:30.646Z,31.36
2023-05-09T20:42:36.155Z,31.88
2023-05-09T20:47:41.179Z,31.08
2023-05-09T20:52:46.105Z,31.07
2023-05-09T20:57:51.099Z,31.17
2023-05-09T21:02:58.777Z,31.55
2023-05-09T21:08:03.787Z,31.91
2023-05-09T21:13:09.974Z,31.35
2023-05-09T21:18:14.891Z,31.89
2023-05-09T21:23:19.768Z,32.69
2023-05-09T21:28:24.909Z,32.20
2023-05-09T21:33:30.916Z,32.19
2023-05-09T21:38:36.081Z,31.66
2023-05-09T21:43:40.863Z,31.66
2023-05-09T21:48:45.951Z,32.35
2023-05-09T21:53:51.205Z,31.89
2023-05-09T21:58:56.172Z,32.31
2023-05-09T22:04:01.317Z,32.29
2023-05-09T22:09:07.737Z,32.12
2023-05-09T22:14:12.749Z,32.34
2023-05-09T22:19:18.702Z,31.83
2023-05-09T22:24:23.674Z,32.51
2023-05-09T22:29:29.129Z,32.30
2023-05-09T22:34:34.023Z,32.59
2023-05-09T22:39:39.157Z,32.16
2023-05-09T22:44:44.612Z,32.40
2023-05-09T22:49:50.925Z,32.88
2023-05-09T22:54:55.868Z,32.79
2023-05-09T23:00:01.001Z,33.02
2023-05-09T23:05:06.190Z,33.35
2023-05-09T23:10:11.226Z,31.80
2023-05-09T23:15:16.130Z,32.67
2023-05-09T23:20:21.043Z,32.20
2023-05-09T23:25:26.137Z,33.19
2023-05-09T23:30:31.160Z,32.76
2023-05-09T23:35:35.651Z,32.68
2023-05-09T23:40:41.105Z,32.02
2023-05-09T23:45:46.109Z,32.23
2023-05-09T23:50:54.971Z,31.82
2023-05-09T23:55:59.752Z,31.58
